sensor_id;sensor_type;location;lat;lon;timestamp;pressure;altitude;pressure_sealevel;temperature;humidity
79799;BME280;69283;48.024;11.090;2023-05-24T00:01:03;95527.44;;;13.67;71.66
79799;BME280;69283;48.024;11.090;2023-05-24T00:03:29;95522.94;;;13.59;72.00
79799;BME280;69283;48.024;11.090;2023-05-24T00:06:01;95520.22;;;13.59;72.32
79799;BME280;69283;48.024;11.090;2023-05-24T00:08:27;95518.22;;;13.56;72.42
79799;BME280;69283;48.024;11.090;2023-05-24T00:10:53;95513.75;;;13.48;72.35
79799;BME280;69283;48.024;11.090;2023-05-24T00:13:18;95506.38;;;13.49;72.19
79799;BME280;69283;48.024;11.090;2023-05-24T00:15:44;95508.91;;;13.42;72.76
79799;BME280;69283;48.024;11.090;2023-05-24T00:18:09;95500.97;;;13.36;72.64
79799;BME280;69283;48.024;11.090;2023-05-24T00:20:34;95499.41;;;13.35;72.64
79799;BME280;69283;48.024;11.090;2023-05-24T00:23:00;95504.25;;;13.26;72.65
79799;BME280;69283;48.024;11.090;2023-05-24T00:25:25;95507.03;;;13.30;72.78
79799;BME280;69283;48.024;11.090;2023-05-24T00:27:50;95500.81;;;13.29;72.64
79799;BME280;69283;48.024;11.090;2023-05-24T00:30:15;95501.94;;;13.28;72.88
79799;BME280;69283;48.024;11.090;2023-05-24T00:32:41;95503.53;;;13.29;72.98
79799;BME280;69283;48.024;11.090;2023-05-24T00:35:06;95500.63;;;13.22;72.76
79799;BME280;69283;48.024;11.090;2023-05-24T00:37:32;95496.44;;;13.25;73.06
79799;BME280;69283;48.024;11.090;2023-05-24T00:39:57;95501.50;;;13.26;73.28
79799;BME280;69283;48.024;11.090;2023-05-24T00:42:22;95497.91;;;13.22;73.26
79799;BME280;69283;48.024;11.090;2023-05-24T00:44:48;95500.38;;;13.27;73.16
79799;BME280;69283;48.024;11.090;2023-05-24T00:47:14;95501.16;;;13.28;72.67
79799;BME280;69283;48.024;11.090;2023-05-24T00:49:39;95501.50;;;13.26;72.68
79799;BME280;69283;48.024;11.090;2023-05-24T00:52:05;95503.09;;;13.27;72.65
79799;BME280;69283;48.024;11.090;2023-05-24T00:54:33;95498.88;;;13.30;72.76
79799;BME280;69283;48.024;11.090;2023-05-24T00:56:58;95495.81;;;13.31;72.26
79799;BME280;69283;48.024;11.090;2023-05-24T00:59:24;95489.50;;;13.27;72.89
79799;BME280;69283;48.024;11.090;2023-05-24T01:01:49;95491.78;;;13.25;72.53
79799;BME280;69283;48.024;11.090;2023-05-24T01:04:14;95485.19;;;13.26;72.96
79799;BME280;69283;48.024;11.090;2023-05-24T01:09:46;95480.44;;;13.23;72.74
79799;BME280;69283;48.024;11.090;2023-05-24T01:15:21;95487.59;;;13.16;73.35
79799;BME280;69283;48.024;11.090;2023-05-24T01:18:19;95486.78;;;13.15;73.43
79799;BME280;69283;48.024;11.090;2023-05-24T01:20:58;95491.78;;;13.13;73.16
79799;BME280;69283;48.024;11.090;2023-05-24T01:23:37;95480.47;;;13.11;73.57
79799;BME280;69283;48.024;11.090;2023-05-24T01:26:17;95492.06;;;13.08;73.45
79799;BME280;69283;48.024;11.090;2023-05-24T01:28:45;95489.59;;;13.03;73.56
79799;BME280;69283;48.024;11.090;2023-05-24T01:31:11;95488.81;;;13.02;73.29
79799;BME280;69283;48.024;11.090;2023-05-24T01:33:42;95487.31;;;13.05;73.26
79799;BME280;69283;48.024;11.090;2023-05-24T01:36:08;95485.63;;;13.00;73.74
79799;BME280;69283;48.024;11.090;2023-05-24T01:38:33;95483.69;;;13.01;73.52
79799;BME280;69283;48.024;11.090;2023-05-24T01:41:04;95480.97;;;13.01;73.48
79799;BME280;69283;48.024;11.090;2023-05-24T01:43:42;95482.56;;;13.02;73.40
79799;BME280;69283;48.024;11.090;2023-05-24T01:46:37;95479.94;;;13.05;73.19
79799;BME280;69283;48.024;11.090;2023-05-24T01:51:40;95485.81;;;13.07;73.42
79799;BME280;69283;48.024;11.090;2023-05-24T01:54:08;95490.03;;;13.05;73.44
79799;BME280;69283;48.024;11.090;2023-05-24T01:56:34;95497.41;;;13.04;73.30
79799;BME280;69283;48.024;11.090;2023-05-24T01:59:01;95497.50;;;13.08;73.28
79799;BME280;69283;48.024;11.090;2023-05-24T02:01:27;95497.50;;;13.08;73.25
79799;BME280;69283;48.024;11.090;2023-05-24T02:03:53;95500.66;;;13.10;73.08
79799;BME280;69283;48.024;11.090;2023-05-24T02:06:19;95494.00;;;13.07;73.08
79799;BME280;69283;48.024;11.090;2023-05-24T02:08:44;95497.75;;;13.03;73.40
79799;BME280;69283;48.024;11.090;2023-05-24T02:11:10;95487.22;;;13.01;73.10
79799;BME280;69283;48.024;11.090;2023-05-24T02:13:35;95491.66;;;12.94;73.80
79799;BME280;69283;48.024;11.090;2023-05-24T02:16:01;95496.84;;;12.99;73.34
79799;BME280;69283;48.024;11.090;2023-05-24T02:18:26;95501.84;;;12.97;73.16
79799;BME280;69283;48.024;11.090;2023-05-24T02:20:51;95496.75;;;12.95;73.35
79799;BME280;69283;48.024;11.090;2023-05-24T02:23:17;95499.81;;;12.94;73.08
79799;BME280;69283;48.024;11.090;2023-05-24T02:25:42;95501.13;;;12.84;73.22
79799;BME280;69283;48.024;11.090;2023-05-24T02:28:08;95498.63;;;12.79;73.64
79799;BME280;69283;48.024;11.090;2023-05-24T02:30:33;95497.19;;;12.82;73.52
79799;BME280;69283;48.024;11.090;2023-05-24T02:32:58;95496.72;;;12.79;73.46
79799;BME280;69283;48.024;11.090;2023-05-24T02:35:24;95495.56;;;12.80;73.61
79799;BME280;69283;48.024;11.090;2023-05-24T02:37:50;95490.38;;;12.75;73.77
79799;BME280;69283;48.024;11.090;2023-05-24T02:40:15;95484.69;;;12.80;73.73
79799;BME280;69283;48.024;11.090;2023-05-24T02:42:41;95476.78;;;12.75;73.58
79799;BME280;69283;48.024;11.090;2023-05-24T02:45:06;95477.03;;;12.70;73.76
79799;BME280;69283;48.024;11.090;2023-05-24T02:47:32;95478.53;;;12.68;73.97
79799;BME280;69283;48.024;11.090;2023-05-24T02:49:57;95481.59;;;12.66;73.41
79799;BME280;69283;48.024;11.090;2023-05-24T02:52:22;95485.56;;;12.57;73.66
79799;BME280;69283;48.024;11.090;2023-05-24T02:54:48;95482.88;;;12.57;73.72
79799;BME280;69283;48.024;11.090;2023-05-24T02:57:13;95471.19;;;12.56;73.96
79799;BME280;69283;48.024;11.090;2023-05-24T02:59:39;95473.66;;;12.61;73.92
79799;BME280;69283;48.024;11.090;2023-05-24T03:02:04;95473.66;;;12.61;73.81
79799;BME280;69283;48.024;11.090;2023-05-24T03:04:30;95470.41;;;12.56;74.01
79799;BME280;69283;48.024;11.090;2023-05-24T03:06:55;95480.75;;;12.50;74.14
79799;BME280;69283;48.024;11.090;2023-05-24T03:09:21;95478.03;;;12.50;74.21
79799;BME280;69283;48.024;11.090;2023-05-24T03:11:46;95477.59;;;12.48;74.28
79799;BME280;69283;48.024;11.090;2023-05-24T03:14:11;95477.34;;;12.53;74.38
79799;BME280;69283;48.024;11.090;2023-05-24T03:16:36;95473.91;;;12.56;73.92
79799;BME280;69283;48.024;11.090;2023-05-24T03:19:02;95473.81;;;12.53;74.12
79799;BME280;69283;48.024;11.090;2023-05-24T03:21:28;95473.03;;;12.52;74.38
79799;BME280;69283;48.024;11.090;2023-05-24T03:23:53;95469.19;;;12.53;74.06
79799;BME280;69283;48.024;11.090;2023-05-24T03:26:19;95475.66;;;12.48;74.38
79799;BME280;69283;48.024;11.090;2023-05-24T03:28:44;95464.59;;;12.41;74.76
79799;BME280;69283;48.024;11.090;2023-05-24T03:31:10;95471.03;;;12.37;74.85
79799;BME280;69283;48.024;11.090;2023-05-24T03:33:36;95469.81;;;12.34;75.30
79799;BME280;69283;48.024;11.090;2023-05-24T03:36:02;95474.94;;;12.24;75.59
79799;BME280;69283;48.024;11.090;2023-05-24T03:38:28;95478.88;;;12.26;75.10
79799;BME280;69283;48.024;11.090;2023-05-24T03:40:53;95482.75;;;12.25;75.47
79799;BME280;69283;48.024;11.090;2023-05-24T03:43:19;95482.63;;;12.22;75.41
79799;BME280;69283;48.024;11.090;2023-05-24T03:45:45;95485.56;;;12.29;75.41
79799;BME280;69283;48.024;11.090;2023-05-24T03:48:12;95486.69;;;12.28;75.48
79799;BME280;69283;48.024;11.090;2023-05-24T03:50:37;95489.06;;;12.29;75.87
79799;BME280;69283;48.024;11.090;2023-05-24T03:53:02;95489.41;;;12.28;76.01
79799;BME280;69283;48.024;11.090;2023-05-24T03:55:28;95491.34;;;12.27;75.73
79799;BME280;69283;48.024;11.090;2023-05-24T03:57:53;95495.28;;;12.30;76.13
79799;BME280;69283;48.024;11.090;2023-05-24T04:00:18;95493.47;;;12.34;75.99
79799;BME280;69283;48.024;11.090;2023-05-24T04:02:44;95496.63;;;12.36;76.15
79799;BME280;69283;48.024;11.090;2023-05-24T04:05:09;95495.50;;;12.37;76.20
79799;BME280;69283;48.024;11.090;2023-05-24T04:07:36;95499.44;;;12.39;76.02
79799;BME280;69283;48.024;11.090;2023-05-24T04:10:03;95503.19;;;12.35;76.14
79799;BME280;69283;48.024;11.090;2023-05-24T04:12:29;95501.28;;;12.35;76.47
79799;BME280;69283;48.024;11.090;2023-05-24T04:14:55;95508.88;;;12.30;76.10
79799;BME280;69283;48.024;11.090;2023-05-24T04:17:20;95500.97;;;12.25;76.47
79799;BME280;69283;48.024;11.090;2023-05-24T04:19:49;95511.25;;;12.19;76.21
79799;BME280;69283;48.024;11.090;2023-05-24T04:22:14;95505.63;;;12.12;75.93
79799;BME280;69283;48.024;11.090;2023-05-24T04:24:39;95499.41;;;11.99;75.98
79799;BME280;69283;48.024;11.090;2023-05-24T04:27:05;95507.78;;;11.94;75.67
79799;BME280;69283;48.024;11.090;2023-05-24T04:29:31;95512.88;;;11.96;75.80
79799;BME280;69283;48.024;11.090;2023-05-24T04:31:57;95507.56;;;11.87;75.38
79799;BME280;69283;48.024;11.090;2023-05-24T04:34:24;95508.69;;;11.86;75.80
79799;BME280;69283;48.024;11.090;2023-05-24T04:36:50;95506.44;;;11.88;75.43
79799;BME280;69283;48.024;11.090;2023-05-24T04:39:17;95511.63;;;11.93;75.95
79799;BME280;69283;48.024;11.090;2023-05-24T04:41:43;95512.06;;;11.95;75.17
79799;BME280;69283;48.024;11.090;2023-05-24T04:44:09;95507.44;;;11.96;75.33
79799;BME280;69283;48.024;11.090;2023-05-24T04:46:34;95507.09;;;12.09;75.10
79799;BME280;69283;48.024;11.090;2023-05-24T04:49:00;95506.50;;;12.16;75.15
79799;BME280;69283;48.024;11.090;2023-05-24T04:51:26;95508.91;;;12.05;74.93
79799;BME280;69283;48.024;11.090;2023-05-24T04:53:51;95511.41;;;11.98;74.78
79799;BME280;69283;48.024;11.090;2023-05-24T04:56:17;95508.22;;;11.96;75.13
79799;BME280;69283;48.024;11.090;2023-05-24T04:58:43;95510.72;;;12.01;74.84
79799;BME280;69283;48.024;11.090;2023-05-24T05:01:09;95504.63;;;12.04;74.45
79799;BME280;69283;48.024;11.090;2023-05-24T05:03:34;95511.75;;;12.09;73.81
79799;BME280;69283;48.024;11.090;2023-05-24T05:05:59;95502.78;;;11.96;73.81
79799;BME280;69283;48.024;11.090;2023-05-24T05:08:25;95499.75;;;11.98;74.29
79799;BME280;69283;48.024;11.090;2023-05-24T05:10:50;95502.13;;;11.99;74.29
79799;BME280;69283;48.024;11.090;2023-05-24T05:13:15;95503.69;;;12.00;74.17
79799;BME280;69283;48.024;11.090;2023-05-24T05:15:41;95502.59;;;11.89;74.42
79799;BME280;69283;48.024;11.090;2023-05-24T05:18:07;95503.72;;;11.88;74.56
79799;BME280;69283;48.024;11.090;2023-05-24T05:20:32;95508.56;;;11.95;74.72
79799;BME280;69283;48.024;11.090;2023-05-24T05:22:57;95506.31;;;11.97;74.55
79799;BME280;69283;48.024;11.090;2023-05-24T05:25:23;95518.53;;;12.03;74.19
79799;BME280;69283;48.024;11.090;2023-05-24T05:27:48;95514.69;;;12.04;74.13
79799;BME280;69283;48.024;11.090;2023-05-24T05:30:13;95512.09;;;12.07;73.93
79799;BME280;69283;48.024;11.090;2023-05-24T05:32:39;95507.53;;;11.99;73.58
79799;BME280;69283;48.024;11.090;2023-05-24T05:35:05;95502.34;;;11.94;74.14
79799;BME280;69283;48.024;11.090;2023-05-24T05:37:30;95508.34;;;11.87;73.37
79799;BME280;69283;48.024;11.090;2023-05-24T05:39:55;95506.06;;;11.77;73.57
79799;BME280;69283;48.024;11.090;2023-05-24T05:42:21;95499.28;;;11.71;73.38
79799;BME280;69283;48.024;11.090;2023-05-24T05:44:46;95502.09;;;11.75;73.77
79799;BME280;69283;48.024;11.090;2023-05-24T05:47:11;95498.94;;;11.73;73.61
79799;BME280;69283;48.024;11.090;2023-05-24T05:49:37;95506.06;;;11.77;73.37
79799;BME280;69283;48.024;11.090;2023-05-24T05:52:04;95508.25;;;11.84;72.94
79799;BME280;69283;48.024;11.090;2023-05-24T05:54:29;95505.53;;;11.84;73.29
79799;BME280;69283;48.024;11.090;2023-05-24T05:56:55;95510.28;;;11.87;73.42
79799;BME280;69283;48.024;11.090;2023-05-24T05:59:21;95510.50;;;11.94;73.26
79799;BME280;69283;48.024;11.090;2023-05-24T06:01:46;95516.59;;;11.91;72.87
79799;BME280;69283;48.024;11.090;2023-05-24T06:04:13;95508.69;;;11.98;72.94
79799;BME280;69283;48.024;11.090;2023-05-24T06:06:38;95513.56;;;12.05;73.24
79799;BME280;69283;48.024;11.090;2023-05-24T06:09:04;95512.75;;;12.16;72.70
79799;BME280;69283;48.024;11.090;2023-05-24T06:11:30;95516.59;;;12.15;72.22
79799;BME280;69283;48.024;11.090;2023-05-24T06:13:55;95512.63;;;12.13;72.15
79799;BME280;69283;48.024;11.090;2023-05-24T06:16:20;95514.75;;;12.32;72.46
79799;BME280;69283;48.024;11.090;2023-05-24T06:18:46;95503.44;;;12.42;71.76
79799;BME280;69283;48.024;11.090;2023-05-24T06:21:13;95505.56;;;12.48;71.07
79799;BME280;69283;48.024;11.090;2023-05-24T06:23:38;95501.66;;;12.62;71.23
79799;BME280;69283;48.024;11.090;2023-05-24T06:26:04;95506.50;;;12.68;70.65
79799;BME280;69283;48.024;11.090;2023-05-24T06:28:29;95506.75;;;12.63;70.40
79799;BME280;69283;48.024;11.090;2023-05-24T06:30:54;95507.41;;;12.72;69.86
79799;BME280;69283;48.024;11.090;2023-05-24T06:33:20;95508.00;;;12.66;70.62
79799;BME280;69283;48.024;11.090;2023-05-24T06:35:47;95505.72;;;12.68;70.29
79799;BME280;69283;48.024;11.090;2023-05-24T06:38:12;95511.16;;;12.68;70.60
79799;BME280;69283;48.024;11.090;2023-05-24T06:40:37;95507.75;;;12.71;70.03
79799;BME280;69283;48.024;11.090;2023-05-24T06:43:03;95510.16;;;12.88;70.70
79799;BME280;69283;48.024;11.090;2023-05-24T06:45:28;95510.78;;;12.97;69.95
79799;BME280;69283;48.024;11.090;2023-05-24T06:47:54;95510.06;;;13.13;68.96
79799;BME280;69283;48.024;11.090;2023-05-24T06:50:19;95513.56;;;13.13;67.50
79799;BME280;69283;48.024;11.090;2023-05-24T06:52:44;95519.09;;;13.17;67.88
79799;BME280;69283;48.024;11.090;2023-05-24T06:55:10;95516.50;;;13.20;68.40
79799;BME280;69283;48.024;11.090;2023-05-24T06:57:35;95530.03;;;13.32;68.88
79799;BME280;69283;48.024;11.090;2023-05-24T07:00:00;95518.19;;;13.25;67.87
79799;BME280;69283;48.024;11.090;2023-05-24T07:02:26;95522.59;;;13.29;67.29
79799;BME280;69283;48.024;11.090;2023-05-24T07:04:52;95526.88;;;13.30;68.36
79799;BME280;69283;48.024;11.090;2023-05-24T07:07:19;95529.44;;;13.23;66.92
79799;BME280;69283;48.024;11.090;2023-05-24T07:09:44;95527.69;;;13.31;66.60
79799;BME280;69283;48.024;11.090;2023-05-24T07:12:11;95524.16;;;13.30;66.88
79799;BME280;69283;48.024;11.090;2023-05-24T07:14:36;95522.16;;;13.15;66.71
79799;BME280;69283;48.024;11.090;2023-05-24T07:17:01;95523.88;;;13.20;67.58
79799;BME280;69283;48.024;11.090;2023-05-24T07:19:27;95516.25;;;13.25;67.25
79799;BME280;69283;48.024;11.090;2023-05-24T07:21:56;95518.19;;;13.25;66.87
79799;BME280;69283;48.024;11.090;2023-05-24T07:24:22;95524.34;;;13.37;66.71
79799;BME280;69283;48.024;11.090;2023-05-24T07:26:48;95516.19;;;13.37;66.16
79799;BME280;69283;48.024;11.090;2023-05-24T07:29:23;95517.16;;;13.45;66.77
79799;BME280;69283;48.024;11.090;2023-05-24T07:31:49;95514.88;;;13.47;65.75
79799;BME280;69283;48.024;11.090;2023-05-24T07:34:14;95527.00;;;13.65;64.94
79799;BME280;69283;48.024;11.090;2023-05-24T07:36:40;95530.41;;;13.78;64.24
79799;BME280;69283;48.024;11.090;2023-05-24T07:39:06;95522.69;;;13.80;64.80
79799;BME280;69283;48.024;11.090;2023-05-24T07:41:34;95520.59;;;13.89;64.01
79799;BME280;69283;48.024;11.090;2023-05-24T07:43:59;95528.31;;;14.03;64.31
79799;BME280;69283;48.024;11.090;2023-05-24T07:46:25;95525.03;;;14.13;63.46
79799;BME280;69283;48.024;11.090;2023-05-24T07:48:50;95543.41;;;14.00;62.35
79799;BME280;69283;48.024;11.090;2023-05-24T07:51:16;95535.28;;;13.85;62.31
79799;BME280;69283;48.024;11.090;2023-05-24T07:53:41;95537.44;;;13.79;63.91
79799;BME280;69283;48.024;11.090;2023-05-24T07:56:07;95540.16;;;13.79;nan
79799;BME280;69283;48.024;11.090;2023-05-24T07:58:32;95545.28;;;13.81;64.28
79799;BME280;69283;48.024;11.090;2023-05-24T08:00:57;95547.19;;;13.80;64.08
79799;BME280;69283;48.024;11.090;2023-05-24T08:03:22;95546.25;;;13.73;64.04
79799;BME280;69283;48.024;11.090;2023-05-24T08:05:50;95546.31;;;13.60;64.30
79799;BME280;69283;48.024;11.090;2023-05-24T08:08:15;95541.66;;;13.61;64.36
79799;BME280;69283;48.024;11.090;2023-05-24T08:10:40;95548.59;;;13.58;64.16
79799;BME280;69283;48.024;11.090;2023-05-24T08:13:06;95557.38;;;13.52;64.06
79799;BME280;69283;48.024;11.090;2023-05-24T08:15:31;95554.97;;;13.34;64.55
79799;BME280;69283;48.024;11.090;2023-05-24T08:17:56;95547.97;;;13.33;64.93
79799;BME280;69283;48.024;11.090;2023-05-24T08:20:22;95553.00;;;13.19;64.78
79799;BME280;69283;48.024;11.090;2023-05-24T08:22:47;95552.34;;;13.22;64.92
79799;BME280;69283;48.024;11.090;2023-05-24T08:25:12;95557.88;;;13.26;64.86
79799;BME280;69283;48.024;11.090;2023-05-24T08:27:38;95552.22;;;13.19;64.31
79799;BME280;69283;48.024;11.090;2023-05-24T08:30:04;95560.38;;;13.19;63.90
79799;BME280;69283;48.024;11.090;2023-05-24T08:32:31;95564.09;;;13.26;65.48
79799;BME280;69283;48.024;11.090;2023-05-24T08:34:56;95560.41;;;13.34;63.45
79799;BME280;69283;48.024;11.090;2023-05-24T08:37:22;95561.31;;;13.38;63.94
79799;BME280;69283;48.024;11.090;2023-05-24T08:39:48;95556.06;;;13.46;65.02
79799;BME280;69283;48.024;11.090;2023-05-24T08:42:14;95561.13;;;13.31;64.82
79799;BME280;69283;48.024;11.090;2023-05-24T08:44:43;95562.09;;;13.39;64.15
79799;BME280;69283;48.024;11.090;2023-05-24T08:47:10;95563.50;;;13.33;64.20
79799;BME280;69283;48.024;11.090;2023-05-24T08:49:41;95555.06;;;13.22;64.26
79799;BME280;69283;48.024;11.090;2023-05-24T08:52:07;95550.94;;;13.16;65.34
79799;BME280;69283;48.024;11.090;2023-05-24T08:54:36;95549.81;;;13.17;64.92
79799;BME280;69283;48.024;11.090;2023-05-24T08:57:02;95560.06;;;13.08;65.61
79799;BME280;69283;48.024;11.090;2023-05-24T08:59:27;95552.59;;;13.05;65.18
79799;BME280;69283;48.024;11.090;2023-05-24T09:01:53;95550.47;;;12.98;65.50
79799;BME280;69283;48.024;11.090;2023-05-24T09:04:20;95559.97;;;13.04;66.08
79799;BME280;69283;48.024;11.090;2023-05-24T09:06:47;95567.81;;;12.94;66.09
79799;BME280;69283;48.024;11.090;2023-05-24T09:09:14;95565.53;;;12.96;66.99
79799;BME280;69283;48.024;11.090;2023-05-24T09:11:42;95566.50;;;12.88;66.29
79799;BME280;69283;48.024;11.090;2023-05-24T09:14:09;95576.59;;;12.87;67.80
79799;BME280;69283;48.024;11.090;2023-05-24T09:16:34;95576.22;;;12.89;67.95
79799;BME280;69283;48.024;11.090;2023-05-24T09:19:00;95580.72;;;12.97;67.88
79799;BME280;69283;48.024;11.090;2023-05-24T09:21:25;95580.28;;;12.95;68.09
79799;BME280;69283;48.024;11.090;2023-05-24T09:23:52;95585.72;;;12.95;68.13
79799;BME280;69283;48.024;11.090;2023-05-24T09:26:17;95588.69;;;12.90;68.43
79799;BME280;69283;48.024;11.090;2023-05-24T09:28:43;95592.31;;;12.94;68.64
79799;BME280;69283;48.024;11.090;2023-05-24T09:31:09;95594.94;;;12.90;68.80
79799;BME280;69283;48.024;11.090;2023-05-24T09:33:34;95596.41;;;12.88;71.02
79799;BME280;69283;48.024;11.090;2023-05-24T09:36:02;95587.81;;;12.86;71.09
79799;BME280;69283;48.024;11.090;2023-05-24T09:38:28;95594.81;;;12.87;71.96
79799;BME280;69283;48.024;11.090;2023-05-24T09:41:11;95593.03;;;12.78;72.62
79799;BME280;69283;48.024;11.090;2023-05-24T09:43:47;95589.50;;;12.78;73.58
79799;BME280;69283;48.024;11.090;2023-05-24T09:46:19;95593.94;;;12.83;73.52
79799;BME280;69283;48.024;11.090;2023-05-24T09:48:58;95597.19;;;12.88;72.60
79799;BME280;69283;48.024;11.090;2023-05-24T09:51:24;95589.41;;;12.74;71.24
79799;BME280;69283;48.024;11.090;2023-05-24T09:53:55;95591.94;;;12.67;72.02
79799;BME280;69283;48.024;11.090;2023-05-24T09:56:21;95589.94;;;12.80;72.69
79799;BME280;69283;48.024;11.090;2023-05-24T09:58:47;95603.63;;;12.96;73.85
79799;BME280;69283;48.024;11.090;2023-05-24T10:01:13;95592.72;;;13.08;71.84
79799;BME280;69283;48.024;11.090;2023-05-24T10:03:54;95594.38;;;13.25;71.30
79799;BME280;69283;48.024;11.090;2023-05-24T10:06:20;95592.28;;;13.34;69.76
79799;BME280;69283;48.024;11.090;2023-05-24T10:08:49;95595.75;;;13.47;71.65
79799;BME280;69283;48.024;11.090;2023-05-24T10:11:14;95590.75;;;13.49;70.59
79799;BME280;69283;48.024;11.090;2023-05-24T10:13:40;95598.13;;;13.48;69.52
79799;BME280;69283;48.024;11.090;2023-05-24T10:16:06;95604.19;;;13.42;67.89
79799;BME280;69283;48.024;11.090;2023-05-24T10:18:31;95596.25;;;13.36;67.73
79799;BME280;69283;48.024;11.090;2023-05-24T10:20:58;95598.78;;;13.29;67.15
79799;BME280;69283;48.024;11.090;2023-05-24T10:23:29;95605.72;;;13.15;67.29
79799;BME280;69283;48.024;11.090;2023-05-24T10:26:20;95608.09;;;13.16;69.48
79799;BME280;69283;48.024;11.090;2023-05-24T10:28:52;95594.63;;;13.20;68.94
79799;BME280;69283;48.024;11.090;2023-05-24T10:31:33;95596.31;;;13.24;68.79
79799;BME280;69283;48.024;11.090;2023-05-24T10:34:02;95602.09;;;13.23;69.21
79799;BME280;69283;48.024;11.090;2023-05-24T10:36:29;95603.00;;;13.27;69.04
79799;BME280;69283;48.024;11.090;2023-05-24T10:38:55;95599.66;;;13.33;68.16
79799;BME280;69283;48.024;11.090;2023-05-24T10:41:24;95601.31;;;13.22;65.60
79799;BME280;69283;48.024;11.090;2023-05-24T10:43:51;95592.13;;;13.15;65.02
79799;BME280;69283;48.024;11.090;2023-05-24T10:46:17;95605.97;;;13.09;66.10
79799;BME280;69283;48.024;11.090;2023-05-24T10:48:42;95601.66;;;13.08;67.58
79799;BME280;69283;48.024;11.090;2023-05-24T10:51:37;95609.94;;;13.12;69.32
79799;BME280;69283;48.024;11.090;2023-05-24T10:54:14;95603.13;;;13.18;69.38
79799;BME280;69283;48.024;11.090;2023-05-24T10:56:45;95606.41;;;13.12;67.71
79799;BME280;69283;48.024;11.090;2023-05-24T10:59:32;95601.88;;;13.16;68.88
79799;BME280;69283;48.024;11.090;2023-05-24T11:02:03;95600.53;;;13.22;68.65
79799;BME280;69283;48.024;11.090;2023-05-24T11:04:36;95604.03;;;13.10;68.32
79799;BME280;69283;48.024;11.090;2023-05-24T11:07:06;95606.09;;;13.01;68.53
79799;BME280;69283;48.024;11.090;2023-05-24T11:09:39;95603.09;;;12.90;68.17
79799;BME280;69283;48.024;11.090;2023-05-24T11:12:15;95606.16;;;12.89;69.24
79799;BME280;69283;48.024;11.090;2023-05-24T11:14:49;95609.13;;;12.84;68.46
79799;BME280;69283;48.024;11.090;2023-05-24T11:17:15;95605.03;;;12.77;67.90
79799;BME280;69283;48.024;11.090;2023-05-24T11:19:49;95605.28;;;12.72;68.39
79799;BME280;69283;48.024;11.090;2023-05-24T11:22:15;95608.69;;;12.69;68.21
79799;BME280;69283;48.024;11.090;2023-05-24T11:24:42;95601.34;;;12.58;67.98
79799;BME280;69283;48.024;11.090;2023-05-24T11:27:10;95604.97;;;12.62;69.22
79799;BME280;69283;48.024;11.090;2023-05-24T11:29:43;95609.81;;;12.68;68.73
79799;BME280;69283;48.024;11.090;2023-05-24T11:32:13;95605.53;;;12.67;68.62
79799;BME280;69283;48.024;11.090;2023-05-24T11:34:38;95595.53;;;12.71;68.09
79799;BME280;69283;48.024;11.090;2023-05-24T11:37:04;95609.03;;;12.68;66.16
79799;BME280;69283;48.024;11.090;2023-05-24T11:39:30;95605.06;;;12.65;67.72
79799;BME280;69283;48.024;11.090;2023-05-24T11:41:56;95598.06;;;12.64;67.05
79799;BME280;69283;48.024;11.090;2023-05-24T11:44:22;95600.19;;;12.71;67.56
79799;BME280;69283;48.024;11.090;2023-05-24T11:46:47;95596.78;;;12.74;67.08
79799;BME280;69283;48.024;11.090;2023-05-24T11:49:14;95599.38;;;12.83;69.02
79799;BME280;69283;48.024;11.090;2023-05-24T11:51:39;95597.09;;;12.85;66.84
79799;BME280;69283;48.024;11.090;2023-05-24T11:54:04;95598.69;;;12.86;65.63
79799;BME280;69283;48.024;11.090;2023-05-24T11:56:31;95588.03;;;12.80;64.87
79799;BME280;69283;48.024;11.090;2023-05-24T11:59:07;95597.09;;;12.85;67.16
79799;BME280;69283;48.024;11.090;2023-05-24T12:01:33;95590.53;;;12.86;66.17
79799;BME280;69283;48.024;11.090;2023-05-24T12:03:58;95592.56;;;12.89;65.53
79799;BME280;69283;48.024;11.090;2023-05-24T12:06:33;95588.59;;;12.86;66.56
79799;BME280;69283;48.024;11.090;2023-05-24T12:08:58;95593.25;;;12.86;64.91
79799;BME280;69283;48.024;11.090;2023-05-24T12:11:24;95593.25;;;12.86;64.45
79799;BME280;69283;48.024;11.090;2023-05-24T12:13:50;95594.94;;;12.90;64.51
79799;BME280;69283;48.024;11.090;2023-05-24T12:16:15;95592.19;;;13.02;62.78
79799;BME280;69283;48.024;11.090;2023-05-24T12:18:40;95591.94;;;13.07;64.73
79799;BME280;69283;48.024;11.090;2023-05-24T12:21:08;95590.31;;;13.19;64.54
79799;BME280;69283;48.024;11.090;2023-05-24T12:23:35;95591.31;;;13.26;63.37
79799;BME280;69283;48.024;11.090;2023-05-24T12:26:02;95593.16;;;13.22;62.45
79799;BME280;69283;48.024;11.090;2023-05-24T12:28:32;95594.41;;;13.13;62.91
79799;BME280;69283;48.024;11.090;2023-05-24T12:31:01;95581.31;;;13.02;62.74
79799;BME280;69283;48.024;11.090;2023-05-24T12:33:27;95600.47;;;12.94;63.18
79799;BME280;69283;48.024;11.090;2023-05-24T12:35:53;95586.22;;;12.85;61.92
79799;BME280;69283;48.024;11.090;2023-05-24T12:38:18;95595.53;;;12.84;62.45
79799;BME280;69283;48.024;11.090;2023-05-24T12:40:49;95599.13;;;12.88;63.60
79799;BME280;69283;48.024;11.090;2023-05-24T12:43:14;95599.38;;;12.83;62.34
79799;BME280;69283;48.024;11.090;2023-05-24T12:45:40;95602.09;;;12.83;63.29
79799;BME280;69283;48.024;11.090;2023-05-24T12:48:06;95593.94;;;12.83;62.34
79799;BME280;69283;48.024;11.090;2023-05-24T12:50:31;95601.16;;;12.91;64.66
79799;BME280;69283;48.024;11.090;2023-05-24T12:52:58;95608.38;;;12.99;63.79
79799;BME280;69283;48.024;11.090;2023-05-24T12:55:25;95605.00;;;12.90;60.90
79799;BME280;69283;48.024;11.090;2023-05-24T12:57:55;95603.53;;;12.92;61.39